createdAt,value
2022-12-01T00:00:22.733Z,2.64
2022-12-01T00:02:49.326Z,2.58
2022-12-01T00:05:15.841Z,2.64
2022-12-01T00:07:42.305Z,2.62
2022-12-01T00:10:26.649Z,2.63
2022-12-01T00:12:54.203Z,2.63
2022-12-01T00:15:21.402Z,2.65
2022-12-01T00:17:48.875Z,2.65
2022-12-01T00:20:18.190Z,2.63
2022-12-01T00:22:46.352Z,2.60
2022-12-01T00:25:14.137Z,2.59
2022-12-01T00:27:41.094Z,2.65
2022-12-01T00:30:10.954Z,2.67
2022-12-01T00:32:37.812Z,2.69
2022-12-01T00:35:06.097Z,2.55
2022-12-01T00:37:34.202Z,2.52
2022-12-01T00:40:01.242Z,2.51
2022-12-01T00:42:28.026Z,2.59
2022-12-01T00:44:54.379Z,2.49
2022-12-01T00:47:21.043Z,2.53
2022-12-01T00:49:47.621Z,2.52
2022-12-01T00:52:15.722Z,2.49
2022-12-01T00:54:42.090Z,2.52
2022-12-01T00:57:09.019Z,2.52
2022-12-01T00:59:35.857Z,2.50
2022-12-01T01:02:08.333Z,2.48
2022-12-01T01:04:36.260Z,2.53
2022-12-01T01:07:02.799Z,2.49
2022-12-01T01:09:30.819Z,2.41
2022-12-01T01:11:57.213Z,2.46
2022-12-01T01:14:24.070Z,2.47
2022-12-01T01:16:50.582Z,2.41
2022-12-01T01:19:17.575Z,2.46
2022-12-01T01:21:43.963Z,2.45
2022-12-01T01:24:10.364Z,2.47
2022-12-01T01:26:37.754Z,2.45
2022-12-01T01:29:07.489Z,2.45
2022-12-01T01:31:34.930Z,2.44
2022-12-01T01:34:01.447Z,2.42
2022-12-01T01:36:28.075Z,2.26
2022-12-01T01:38:55.219Z,2.29
2022-12-01T01:41:23.463Z,2.29
2022-12-01T01:43:52.364Z,2.29
2022-12-01T01:46:21.620Z,2.29
2022-12-01T01:49:01.113Z,2.24
2022-12-01T01:51:33.592Z,2.32
2022-12-01T01:54:06.333Z,2.39
2022-12-01T01:56:34.168Z,2.27
2022-12-01T01:59:00.889Z,2.26
2022-12-01T02:01:27.309Z,2.26
2022-12-01T02:03:54.727Z,2.22
2022-12-01T02:06:23.474Z,2.30
2022-12-01T02:08:50.417Z,2.22
2022-12-01T02:11:16.764Z,2.19
2022-12-01T02:14:08.758Z,2.16
2022-12-01T02:17:00.024Z,2.20
2022-12-01T02:19:55.416Z,2.13
2022-12-01T02:22:50.775Z,2.22
2022-12-01T02:25:28.226Z,2.12
2022-12-01T02:27:57.634Z,2.06
2022-12-01T02:30:43.671Z,2.13
2022-12-01T02:33:23.893Z,2.13
2022-12-01T02:36:00.212Z,2.14
2022-12-01T02:38:40.076Z,2.14
2022-12-01T02:41:19.965Z,2.15
2022-12-01T02:44:21.227Z,2.15
2022-12-01T02:46:56.369Z,2.14
2022-12-01T02:49:35.290Z,2.19
2022-12-01T02:52:06.017Z,2.20
2022-12-01T02:54:33.617Z,2.13
2022-12-01T02:57:00.038Z,2.19
2022-12-01T02:59:26.593Z,2.20
2022-12-01T03:02:04.285Z,2.22
2022-12-01T03:04:42.961Z,2.22
2022-12-01T03:07:13.299Z,2.27
2022-12-01T03:10:17.201Z,2.26
2022-12-01T03:13:39.987Z,2.22
2022-12-01T03:16:28.733Z,2.23
2022-12-01T03:19:00.340Z,2.27
2022-12-01T03:21:33.453Z,2.27
2022-12-01T03:24:05.241Z,2.37
2022-12-01T03:26:35.301Z,2.22
2022-12-01T03:29:08.181Z,2.22
2022-12-01T03:31:40.924Z,2.20
2022-12-01T03:34:24.054Z,2.17
2022-12-01T03:36:56.510Z,2.12
2022-12-01T03:39:29.419Z,2.15
2022-12-01T03:42:00.790Z,2.08
2022-12-01T03:44:35.333Z,2.07
2022-12-01T03:47:09.969Z,2.03
2022-12-01T03:49:37.599Z,1.97
2022-12-01T03:52:03.941Z,2.15
2022-12-01T03:54:52.084Z,1.98
2022-12-01T03:57:26.222Z,2.02
2022-12-01T03:59:54.058Z,1.95
2022-12-01T04:02:20.861Z,2.03
2022-12-01T04:04:47.395Z,1.98
2022-12-01T04:07:14.765Z,1.96
2022-12-01T04:09:41.833Z,1.96
2022-12-01T04:12:32.676Z,1.96
2022-12-01T04:15:06.088Z,2.01
2022-12-01T04:17:32.562Z,1.95
2022-12-01T04:19:58.987Z,1.97
2022-12-01T04:22:25.751Z,1.96
2022-12-01T04:24:52.934Z,1.95
2022-12-01T04:27:20.098Z,1.93
2022-12-01T04:29:46.700Z,1.96
2022-12-01T04:32:13.698Z,1.96
2022-12-01T04:34:40.140Z,1.92
2022-12-01T04:37:07.321Z,1.93
2022-12-01T04:39:34.659Z,1.98
2022-12-01T04:42:01.092Z,1.99
2022-12-01T04:44:34.327Z,2.10
2022-12-01T04:47:01.449Z,2.03
2022-12-01T04:49:28.346Z,2.00
2022-12-01T04:51:54.817Z,2.01
2022-12-01T04:54:21.231Z,1.99
2022-12-01T04:56:48.200Z,2.11
2022-12-01T04:59:14.647Z,2.06
2022-12-01T05:01:41.184Z,1.99
2022-12-01T05:04:07.870Z,2.04
2022-12-01T05:06:34.322Z,1.98
2022-12-01T05:09:02.068Z,1.99
2022-12-01T05:11:29.916Z,1.97
2022-12-01T05:13:56.382Z,1.98
2022-12-01T05:16:25.366Z,1.98
2022-12-01T05:19:16.593Z,1.99
2022-12-01T05:21:44.835Z,2.03
2022-12-01T05:24:12.672Z,1.93
2022-12-01T05:26:39.587Z,2.04
2022-12-01T05:29:06.377Z,1.94
2022-12-01T05:31:33.148Z,1.85
2022-12-01T05:33:59.780Z,1.91
2022-12-01T05:36:27.048Z,1.92
2022-12-01T05:38:54.519Z,1.91
2022-12-01T05:41:21.452Z,1.84
2022-12-01T05:43:48.032Z,1.97
2022-12-01T05:46:14.441Z,1.99
2022-12-01T05:48:40.906Z,1.97
2022-12-01T05:51:09.594Z,1.94
2022-12-01T05:53:35.986Z,2.07
2022-12-01T05:56:02.470Z,1.97
2022-12-01T05:58:28.857Z,1.98
2022-12-01T06:00:55.259Z,1.96
2022-12-01T06:03:21.754Z,1.99
2022-12-01T06:05:48.187Z,1.98
2022-12-01T06:08:14.591Z,1.96
2022-12-01T06:10:41.194Z,1.96
2022-12-01T06:13:07.602Z,1.95
2022-12-01T06:15:34.007Z,2.01
2022-12-01T06:18:00.422Z,2.01
2022-12-01T06:20:27.073Z,1.94
2022-12-01T06:22:53.610Z,1.99
2022-12-01T06:25:20.035Z,1.99
2022-12-01T06:27:46.983Z,2.02
2022-12-01T06:30:13.605Z,2.01
2022-12-01T06:32:40.191Z,2.00
2022-12-01T06:35:07.121Z,2.07
2022-12-01T06:37:33.591Z,2.06
2022-12-01T06:40:00.021Z,2.05
2022-12-01T06:42:30.100Z,2.08
2022-12-01T06:44:56.487Z,2.04
2022-12-01T06:47:22.931Z,2.06
2022-12-01T06:49:49.561Z,2.02
2022-12-01T06:52:16.063Z,2.07
2022-12-01T06:54:42.415Z,2.11
2022-12-01T06:57:08.958Z,2.07
2022-12-01T06:59:35.751Z,2.09
2022-12-01T07:02:03.102Z,2.08
2022-12-01T07:04:30.229Z,2.07
2022-12-01T07:06:56.633Z,2.06
2022-12-01T07:09:23.044Z,2.12
2022-12-01T07:11:49.568Z,2.03
2022-12-01T07:14:24.836Z,2.12
2022-12-01T07:16:51.311Z,1.99
2022-12-01T07:19:17.996Z,2.01
2022-12-01T07:21:44.515Z,2.09
2022-12-01T07:24:12.534Z,2.10
2022-12-01T07:26:40.132Z,2.05
2022-12-01T07:29:07.076Z,2.04
2022-12-01T07:31:33.497Z,1.96
2022-12-01T07:33:59.933Z,1.91
2022-12-01T07:36:26.542Z,1.91
2022-12-01T07:38:53.049Z,1.88
2022-12-01T07:41:20.085Z,2.22
2022-12-01T07:43:47.997Z,1.87
2022-12-01T07:46:22.702Z,1.89
2022-12-01T07:48:49.921Z,1.78
2022-12-01T07:51:17.317Z,1.76
2022-12-01T07:53:45.369Z,1.74
2022-12-01T07:56:12.506Z,1.72
2022-12-01T07:58:39.254Z,1.71
2022-12-01T08:01:11.708Z,1.69
2022-12-01T08:03:38.683Z,1.67
2022-12-01T08:06:06.255Z,1.76
2022-12-01T08:08:34.394Z,1.72
2022-12-01T08:11:07.762Z,1.65
2022-12-01T08:13:34.208Z,1.74
2022-12-01T08:16:04.957Z,1.67
2022-12-01T08:18:33.607Z,1.66
2022-12-01T08:21:00.099Z,1.65
2022-12-01T08:23:26.495Z,1.73
2022-12-01T08:25:52.912Z,1.73
2022-12-01T08:28:19.840Z,1.72
2022-12-01T08:30:46.592Z,1.63
2022-12-01T08:33:13.207Z,1.73
2022-12-01T08:35:39.610Z,1.71
2022-12-01T08:38:06.017Z,1.73
2022-12-01T08:40:32.496Z,1.86
2022-12-01T08:42:59.031Z,1.71
2022-12-01T08:45:25.480Z,1.67
2022-12-01T08:47:54.840Z,1.72
2022-12-01T08:50:21.241Z,1.71
2022-12-01T08:52:47.721Z,1.76
2022-12-01T08:55:14.197Z,1.76
2022-12-01T08:57:40.629Z,1.72
2022-12-01T09:00:07.696Z,1.73
2022-12-01T09:02:34.644Z,1.81
2022-12-01T09:05:01.148Z,1.88
2022-12-01T09:07:27.722Z,1.70
2022-12-01T09:09:54.220Z,1.81
2022-12-01T09:12:20.668Z,1.75
2022-12-01T09:14:49.433Z,1.80
2022-12-01T09:17:17.208Z,1.78
2022-12-01T09:19:44.217Z,1.71
2022-12-01T09:22:11.733Z,1.68
2022-12-01T09:24:38.397Z,1.72
2022-12-01T09:27:05.712Z,1.75
2022-12-01T09:29:32.509Z,1.72
2022-12-01T09:31:59.775Z,1.71
2022-12-01T09:34:26.753Z,1.65
2022-12-01T09:36:56.468Z,1.87
2022-12-01T09:39:23.128Z,1.71
2022-12-01T09:42:08.717Z,1.73
2022-12-01T09:44:43.764Z,1.69
2022-12-01T09:47:22.186Z,1.90
2022-12-01T09:50:11.983Z,1.84
2022-12-01T09:52:47.791Z,1.77
2022-12-01T09:55:16.814Z,1.91
2022-12-01T09:57:46.721Z,1.79
2022-12-01T10:00:21.872Z,1.76
2022-12-01T10:02:54.217Z,1.83
2022-12-01T10:05:23.755Z,1.97
2022-12-01T10:08:00.398Z,1.73
2022-12-01T10:10:42.879Z,1.84
2022-12-01T10:13:18.837Z,1.73
2022-12-01T10:15:47.998Z,1.61
2022-12-01T10:18:26.006Z,1.76
2022-12-01T10:21:12.857Z,1.71
2022-12-01T10:24:00.519Z,1.77
2022-12-01T10:26:34.920Z,1.83
2022-12-01T10:29:12.163Z,1.87
2022-12-01T10:32:05.103Z,1.83
2022-12-01T10:34:38.518Z,1.92
2022-12-01T10:37:06.558Z,1.88
2022-12-01T10:39:43.484Z,1.85
2022-12-01T10:42:19.031Z,1.84
2022-12-01T10:44:45.719Z,1.91
2022-12-01T10:47:19.439Z,1.78
2022-12-01T10:49:45.873Z,1.84
2022-12-01T10:52:49.057Z,1.85
2022-12-01T10:55:27.635Z,2.12
2022-12-01T10:57:56.827Z,1.90
2022-12-01T11:03:30.233Z,1.86
2022-12-01T11:05:59.676Z,2.04
2022-12-01T11:08:50.654Z,1.83
2022-12-01T11:11:25.978Z,1.83
2022-12-01T11:13:53.793Z,1.91
2022-12-01T11:16:37.677Z,1.87
2022-12-01T11:19:32.437Z,1.95
2022-12-01T11:22:01.356Z,1.79
2022-12-01T11:24:27.701Z,1.83
2022-12-01T11:26:56.824Z,1.81
2022-12-01T11:29:36.140Z,1.85
2022-12-01T11:32:17.644Z,1.85
2022-12-01T11:34:50.827Z,1.87
2022-12-01T11:37:20.028Z,1.82
2022-12-01T11:39:48.616Z,1.81
2022-12-01T11:42:34.366Z,1.82
2022-12-01T11:45:20.391Z,1.74
2022-12-01T11:48:18.625Z,2.09
2022-12-01T11:51:01.376Z,1.99
2022-12-01T11:53:34.034Z,2.16
2022-12-01T11:56:25.093Z,2.04
2022-12-01T11:59:01.350Z,2.00
2022-12-01T12:02:03.046Z,2.15
2022-12-01T12:04:38.911Z,2.09
2022-12-01T12:07:11.305Z,2.01
2022-12-01T12:09:45.362Z,1.91
2022-12-01T12:12:44.080Z,2.03
2022-12-01T12:15:16.256Z,2.02
2022-12-01T12:17:48.962Z,1.92
2022-12-01T12:21:04.179Z,2.07
2022-12-01T12:23:55.506Z,2.15
2022-12-01T12:26:24.591Z,2.12
2022-12-01T12:28:56.772Z,2.10
2022-12-01T12:31:33.452Z,2.19
2022-12-01T12:34:28.891Z,2.28
2022-12-01T12:37:10.873Z,2.21
2022-12-01T12:39:58.894Z,2.13
2022-12-01T12:42:48.101Z,2.18
2022-12-01T12:45:42.524Z,2.18
2022-12-01T12:48:16.413Z,2.15
2022-12-01T12:51:04.216Z,2.19
2022-12-01T12:53:39.084Z,2.27
2022-12-01T12:56:10.698Z,2.27
2022-12-01T12:58:58.213Z,2.19
2022-12-01T13:01:32.188Z,2.12
2022-12-01T13:04:21.843Z,2.20
2022-12-01T13:07:03.523Z,2.19
2022-12-01T13:09:35.176Z,2.26
2022-12-01T13:12:20.892Z,2.33
2022-12-01T13:14:55.187Z,2.41
2022-12-01T13:17:37.120Z,2.31
2022-12-01T13:20:05.610Z,2.25
2022-12-01T13:22:35.113Z,2.37
2022-12-01T13:25:03.763Z,2.41
2022-12-01T13:27:35.099Z,2.32
2022-12-01T13:30:01.739Z,2.28
2022-12-01T13:32:38.385Z,2.27
2022-12-01T13:35:20.678Z,2.39
2022-12-01T13:37:47.475Z,2.25
2022-12-01T13:40:23.236Z,2.12
2022-12-01T13:43:22.985Z,2.17
2022-12-01T13:45:50.161Z,1.98
2022-12-01T13:48:49.825Z,2.18
2022-12-01T13:51:16.594Z,2.08
2022-12-01T13:53:55.280Z,1.95
2022-12-01T13:56:24.627Z,1.85
2022-12-01T13:58:54.004Z,2.04
2022-12-01T14:01:20.774Z,2.10
2022-12-01T14:04:02.637Z,2.02
2022-12-01T14:06:46.677Z,2.00
2022-12-01T14:09:35.492Z,2.30
2022-12-01T14:12:01.871Z,1.93
2022-12-01T14:14:36.165Z,2.02
2022-12-01T14:17:03.519Z,2.30
2022-12-01T14:19:51.987Z,2.03
2022-12-01T14:22:36.897Z,2.15
2022-12-01T14:25:08.005Z,1.86
2022-12-01T14:27:40.735Z,1.98
2022-12-01T14:30:41.168Z,1.95
2022-12-01T14:33:48.613Z,1.73
2022-12-01T14:36:38.188Z,2.05
2022-12-01T14:39:22.991Z,2.06
2022-12-01T14:41:58.330Z,1.95
2022-12-01T14:44:30.562Z,1.94
2022-12-01T14:46:59.910Z,2.01
2022-12-01T14:49:32.349Z,1.98
2022-12-01T14:52:04.268Z,1.78
2022-12-01T14:54:39.059Z,1.78
2022-12-01T14:57:10.047Z,1.96
2022-12-01T14:59:40.234Z,1.81
2022-12-01T15:02:09.797Z,1.94
2022-12-01T15:05:12.492Z,1.83
2022-12-01T15:07:50.672Z,2.14
2022-12-01T15:10:35.274Z,2.22
2022-12-01T15:13:21.842Z,1.82
2022-12-01T15:15:54.081Z,1.96
2022-12-01T15:18:28.235Z,2.09
2022-12-01T15:21:07.193Z,1.95
2022-12-01T15:23:33.909Z,1.97
2022-12-01T15:26:00.595Z,1.92
2022-12-01T15:28:35.529Z,1.94
2022-12-01T15:31:11.200Z,1.88
2022-12-01T15:33:46.273Z,1.98
2022-12-01T15:36:13.736Z,2.01
2022-12-01T15:38:45.120Z,2.00
2022-12-01T15:41:29.071Z,2.10
2022-12-01T15:43:58.892Z,1.96
2022-12-01T15:46:30.519Z,2.02
2022-12-01T15:49:33.684Z,2.12
2022-12-01T15:52:06.618Z,2.09
2022-12-01T15:54:33.581Z,2.09
2022-12-01T15:57:00.707Z,2.23
2022-12-01T15:59:55.196Z,2.17
2022-12-01T16:02:24.543Z,2.16
2022-12-01T16:05:20.379Z,2.17
2022-12-01T16:08:12.662Z,2.23
2022-12-01T16:10:36.667Z,1.99
2022-12-01T16:13:40.676Z,2.26
2022-12-01T16:16:39.132Z,2.16
2022-12-01T16:19:30.135Z,2.11
2022-12-01T16:22:12.656Z,1.99
2022-12-01T16:24:53.517Z,2.13
2022-12-01T16:27:24.602Z,2.12
2022-12-01T16:29:54.163Z,2.17
2022-12-01T16:32:33.728Z,2.11
2022-12-01T16:35:00.471Z,2.06
2022-12-01T16:37:27.724Z,1.98
2022-12-01T16:39:54.357Z,2.20
2022-12-01T16:42:21.708Z,2.14
2022-12-01T16:44:50.067Z,2.15
2022-12-01T16:47:23.150Z,2.05
2022-12-01T16:49:50.521Z,2.02
2022-12-01T16:55:04.406Z,2.12
2022-12-01T16:57:30.846Z,2.03
2022-12-01T16:59:57.264Z,2.23
2022-12-01T17:02:23.705Z,2.09
2022-12-01T17:04:50.413Z,2.08
2022-12-01T17:07:17.237Z,2.18
2022-12-01T17:09:43.682Z,2.08
2022-12-01T17:12:10.110Z,1.99
2022-12-01T17:14:36.537Z,1.93
2022-12-01T17:17:03.068Z,2.00
2022-12-01T17:19:29.470Z,1.90
2022-12-01T17:21:56.856Z,1.91
2022-12-01T17:24:23.293Z,1.86
2022-12-01T17:26:49.679Z,1.95
2022-12-01T17:29:16.042Z,2.01
2022-12-01T17:31:42.501Z,2.01
2022-12-01T17:34:08.983Z,2.04
2022-12-01T17:36:35.365Z,1.90
2022-12-01T17:39:01.809Z,1.91
2022-12-01T17:41:32.356Z,2.13
2022-12-01T17:44:01.382Z,1.80
2022-12-01T17:46:27.930Z,1.79
2022-12-01T17:48:54.342Z,1.72
2022-12-01T17:51:20.700Z,1.96
2022-12-01T17:53:47.481Z,1.79
2022-12-01T17:56:16.300Z,1.82
2022-12-01T17:58:42.782Z,1.71
2022-12-01T18:01:17.299Z,1.59
2022-12-01T18:03:44.426Z,1.95
2022-12-01T18:06:11.737Z,1.97
2022-12-01T18:08:38.777Z,1.85
2022-12-01T18:11:07.916Z,1.90
2022-12-01T18:13:46.385Z,1.73
2022-12-01T18:16:16.096Z,1.72
2022-12-01T18:18:42.906Z,1.67
2022-12-01T18:21:12.331Z,1.79
2022-12-01T18:23:38.857Z,1.70
2022-12-01T18:26:12.169Z,1.81
2022-12-01T18:28:41.830Z,1.71
2022-12-01T18:31:11.074Z,1.73
2022-12-01T18:33:40.333Z,1.66
2022-12-01T18:36:13.080Z,1.77
2022-12-01T18:38:40.558Z,1.60
2022-12-01T18:41:07.081Z,1.57
2022-12-01T18:43:33.726Z,1.65
2022-12-01T18:46:00.444Z,1.58
2022-12-01T18:48:26.967Z,1.47
2022-12-01T18:50:59.137Z,1.48
2022-12-01T18:53:25.904Z,1.50
2022-12-01T18:55:52.331Z,1.52
2022-12-01T18:58:18.796Z,1.61
2022-12-01T19:00:45.691Z,1.87
2022-12-01T19:03:12.174Z,1.86
2022-12-01T19:05:39.432Z,1.75
2022-12-01T19:08:06.685Z,1.82
2022-12-01T19:10:33.267Z,1.76
2022-12-01T19:12:59.672Z,1.80
2022-12-01T19:15:26.086Z,1.75
2022-12-01T19:17:52.470Z,1.66
2022-12-01T19:20:18.954Z,1.58
2022-12-01T19:22:45.493Z,1.53
2022-12-01T19:25:13.520Z,1.55
2022-12-01T19:27:40.724Z,1.53
2022-12-01T19:30:07.778Z,1.56
2022-12-01T19:32:34.448Z,1.56
2022-12-01T19:35:00.871Z,1.51
2022-12-01T19:37:27.590Z,1.46
2022-12-01T19:39:54.008Z,1.44
2022-12-01T19:42:20.441Z,1.33
2022-12-01T19:44:46.955Z,1.20
2022-12-01T19:47:17.683Z,1.24
2022-12-01T19:49:47.035Z,1.14
2022-12-01T19:52:13.410Z,1.19
2022-12-01T19:54:39.966Z,1.24
2022-12-01T19:57:06.493Z,1.24
2022-12-01T19:59:32.946Z,1.33
2022-12-01T20:01:59.483Z,1.24
2022-12-01T20:04:26.028Z,1.26
2022-12-01T20:06:52.505Z,1.28
2022-12-01T20:09:18.892Z,1.27
2022-12-01T20:11:45.554Z,1.29
2022-12-01T20:14:12.350Z,1.29
2022-12-01T20:16:39.205Z,1.47
2022-12-01T20:19:06.386Z,1.38
2022-12-01T20:21:35.880Z,1.30
2022-12-01T20:24:05.344Z,1.35
2022-12-01T20:26:37.457Z,1.30
2022-12-01T20:29:16.507Z,1.22
2022-12-01T20:31:43.454Z,1.19
2022-12-01T20:34:16.161Z,1.15
2022-12-01T20:36:43.145Z,1.14
2022-12-01T20:39:11.566Z,1.12
2022-12-01T20:41:39.369Z,1.13
2022-12-01T20:44:07.834Z,1.21
2022-12-01T20:46:35.464Z,1.25
2022-12-01T20:49:02.262Z,1.13
2022-12-01T20:51:32.985Z,1.19
2022-12-01T20:54:27.859Z,1.17
2022-12-01T20:56:50.906Z,1.20
2022-12-01T20:59:17.388Z,1.28
2022-12-01T21:01:43.870Z,1.26
2022-12-01T21:04:10.336Z,1.22
2022-12-01T21:06:36.791Z,1.21
2022-12-01T21:09:04.611Z,1.27
2022-12-01T21:11:55.157Z,1.33
2022-12-01T21:14:56.432Z,1.26
2022-12-01T21:17:37.503Z,1.24
2022-12-01T21:20:21.216Z,1.13
2022-12-01T21:22:50.027Z,1.14
2022-12-01T21:25:19.436Z,1.14
2022-12-01T21:27:47.274Z,1.18
2022-12-01T21:30:22.453Z,1.19
2022-12-01T21:32:49.685Z,1.27
2022-12-01T21:35:19.264Z,1.24
2022-12-01T21:37:46.806Z,1.48
2022-12-01T21:40:24.251Z,1.27
2022-12-01T21:42:51.465Z,1.23
2022-12-01T21:45:31.817Z,1.15
2022-12-01T21:48:06.314Z,1.13
2022-12-01T21:50:32.791Z,1.30
2022-12-01T21:52:59.256Z,1.34
2022-12-01T21:55:26.032Z,1.29
2022-12-01T21:57:54.059Z,1.26
2022-12-01T22:00:33.877Z,1.24
2022-12-01T22:03:09.577Z,1.32
2022-12-01T22:06:01.160Z,1.35
2022-12-01T22:08:34.237Z,1.36
2022-12-01T22:11:11.021Z,1.39
2022-12-01T22:13:55.111Z,1.46
2022-12-01T22:16:33.969Z,1.43
2022-12-01T22:19:22.018Z,1.40
2022-12-01T22:21:52.827Z,1.51
2022-12-01T22:24:34.333Z,1.44
2022-12-01T22:27:22.829Z,1.46
2022-12-01T22:29:52.119Z,1.57
2022-12-01T22:32:40.357Z,1.57
2022-12-01T22:35:10.037Z,1.82
2022-12-01T22:37:43.870Z,1.56
2022-12-01T22:40:28.283Z,1.59
2022-12-01T22:42:55.292Z,1.53
2022-12-01T22:45:26.875Z,1.60
2022-12-01T22:48:02.004Z,1.85
2022-12-01T22:50:32.901Z,1.66
2022-12-01T22:53:06.321Z,1.70
2022-12-01T22:55:32.825Z,1.61
2022-12-01T22:57:59.901Z,1.76
2022-12-01T23:00:27.141Z,1.73
2022-12-01T23:02:55.724Z,1.73
2022-12-01T23:05:26.984Z,1.77
2022-12-01T23:07:54.588Z,1.84
2022-12-01T23:10:28.405Z,1.82
2022-12-01T23:12:56.950Z,1.92
2022-12-01T23:15:34.275Z,1.99
2022-12-01T23:18:13.076Z,2.09
2022-12-01T23:20:41.119Z,1.88
2022-12-01T23:23:13.782Z,1.84
2022-12-01T23:25:40.442Z,2.12
2022-12-01T23:28:08.330Z,1.84
2022-12-01T23:30:36.755Z,2.14
2022-12-01T23:33:11.001Z,2.03
2022-12-01T23:35:51.932Z,1.90
2022-12-01T23:38:22.088Z,1.86
2022-12-01T23:40:51.260Z,1.80
2022-12-01T23:43:27.964Z,1.85
2022-12-01T23:46:03.867Z,2.00
2022-12-01T23:48:35.071Z,2.09
2022-12-01T23:51:02.016Z,1.88
2022-12-01T23:53:31.131Z,1.90
2022-12-01T23:56:05.109Z,2.11
2022-12-01T23:58:31.610Z,2.02
